Time;durP1;ratioP1;P1;durP2;ratioP2;P2;SDS_P1;SDS_P2;PMS_P1;PMS_P2;Temp;Humidity;BMP_temperature;BMP_pressure;BME280_temperature;BME280_humidity;BME280_pressure;Samples;Min_cycle;Max_cycle;Signal;HPM_P1;HPM_P2
2023/10/05 00:03:44;;;;;;;10.43;2.70;;;13.70;99.90;;;;;;5061641;28;20786;-65
2023/10/05 00:06:14;;;;;;;8.23;2.13;;;13.70;99.90;;;;;;5063024;28;20052;-64
2023/10/05 00:08:45;;;;;;;10.38;2.22;;;13.70;99.90;;;;;;5059885;28;20136;-64
2023/10/05 00:11:23;;;;;;;;;;;13.70;99.90;;;;;;5064239;28;20095;-64
2023/10/05 00:13:53;;;;;;;8.25;2.20;;;13.70;99.90;;;;;;5067789;28;19965;-64
2023/10/05 00:16:22;;;;;;;10.65;2.30;;;13.70;99.90;;;;;;5072402;28;20047;-65
2023/10/05 00:18:52;;;;;;;12.48;2.70;;;13.70;99.90;;;;;;5068212;28;20051;-64
2023/10/05 00:21:19;;;;;;;11.88;2.38;;;13.70;99.90;;;;;;5065192;28;20072;-65
2023/10/05 00:23:54;;;;;;;11.13;2.10;;;13.70;99.90;;;;;;5064275;28;20045;-65
2023/10/05 00:26:23;;;;;;;12.75;2.30;;;13.70;99.90;;;;;;5064162;28;20040;-64
2023/10/05 00:29:12;;;;;;;9.15;1.92;;;13.70;99.90;;;;;;5065079;28;20106;-65
2023/10/05 00:31:39;;;;;;;10.90;2.50;;;13.70;99.90;;;;;;5055134;28;20059;-65
2023/10/05 00:34:24;;;;;;;10.45;2.55;;;13.70;99.90;;;;;;5053886;28;20154;-65
2023/10/05 00:36:52;;;;;;;11.07;2.03;;;13.70;99.90;;;;;;5054041;28;20623;-65
2023/10/05 00:39:22;;;;;;;7.53;2.00;;;13.70;99.90;;;;;;5075359;28;20059;-65
2023/10/05 00:42:00;;;;;;;10.10;1.80;;;13.70;99.90;;;;;;5058664;28;20048;-66
2023/10/05 00:44:29;;;;;;;8.23;2.42;;;13.70;99.90;;;;;;5072728;28;20059;-65
2023/10/05 00:46:55;;;;;;;9.77;2.55;;;13.70;99.90;;;;;;5058577;28;20059;-65
2023/10/05 00:49:27;;;;;;;9.52;2.03;;;13.70;99.90;;;;;;5057722;28;20077;-65
2023/10/05 00:52:09;;;;;;;9.73;2.35;;;13.60;99.90;;;;;;5061283;28;20040;-65
2023/10/05 00:54:36;;;;;;;9.68;2.58;;;13.70;99.90;;;;;;5073696;28;20049;-65
2023/10/05 00:57:05;;;;;;;11.73;2.35;;;13.70;99.90;;;;;;5042123;28;20052;-65
2023/10/05 00:59:32;;;;;;;8.52;2.00;;;13.70;99.90;;;;;;5060695;28;20430;-65
2023/10/05 01:07:18;;;;;;;10.10;2.55;;;13.60;99.90;;;;;;5063041;28;20051;-65
2023/10/05 01:14:54;;;;;;;9.63;2.20;;;13.60;99.90;;;;;;5061471;28;20047;-65
2023/10/05 01:17:21;;;;;;;9.07;2.72;;;13.60;99.90;;;;;;5044370;28;20037;-65
2023/10/05 01:19:56;;;;;;;12.27;2.78;;;13.50;99.90;;;;;;5054904;28;20049;-65
2023/10/05 01:22:23;;;;;;;11.10;2.35;;;13.60;99.90;;;;;;5061972;28;20037;-65
2023/10/05 01:24:50;;;;;;;12.07;2.33;;;13.60;99.90;;;;;;5056847;28;20106;-65
2023/10/05 01:27:17;;;;;;;10.73;2.10;;;13.60;99.90;;;;;;5056492;28;20059;-65
2023/10/05 01:29:43;;;;;;;12.18;2.55;;;13.60;99.90;;;;;;5057769;28;20124;-65
2023/10/05 01:32:10;;;;;;;8.18;1.95;;;13.50;99.90;;;;;;5057279;28;20044;-65
2023/10/05 01:34:37;;;;;;;8.63;1.92;;;13.60;99.90;;;;;;5066812;28;20730;-65
2023/10/05 01:37:03;;;;;;;6.60;2.03;;;13.60;99.90;;;;;;5060306;28;20041;-65
2023/10/05 01:39:34;;;;;;;8.07;1.90;;;13.50;99.90;;;;;;5056418;28;20056;-65
2023/10/05 01:42:04;;;;;;;7.53;2.50;;;13.60;99.90;;;;;;5074751;28;20044;-64
2023/10/05 01:44:30;;;;;;;10.10;2.50;;;13.50;99.90;;;;;;5058090;28;20052;-65
2023/10/05 01:46:58;;;;;;;12.77;2.30;;;13.50;99.90;;;;;;5058392;28;20067;-65
2023/10/05 01:49:25;;;;;;;9.05;2.15;;;13.50;99.90;;;;;;5060987;28;20040;-65
2023/10/05 01:51:52;;;;;;;11.25;2.45;;;13.50;99.90;;;;;;5073895;28;20066;-65
2023/10/05 01:54:18;;;;;;;12.05;2.40;;;13.50;99.90;;;;;;5070401;28;20521;-65
2023/10/05 01:56:47;;;;;;;9.23;2.30;;;13.50;99.90;;;;;;5058193;28;20052;-64
2023/10/05 01:59:13;;;;;;;13.55;2.58;;;13.50;99.90;;;;;;5074399;28;20045;-64
2023/10/05 02:01:40;;;;;;;12.23;2.45;;;13.50;99.90;;;;;;5059669;28;20528;-65
2023/10/05 02:04:07;;;;;;;11.70;2.70;;;13.50;99.90;;;;;;5064884;28;20045;-65
2023/10/05 02:06:40;;;;;;;12.05;2.70;;;13.50;99.90;;;;;;5046442;28;20042;-65
2023/10/05 02:09:07;;;;;;;13.95;3.08;;;13.50;99.90;;;;;;5062952;28;20036;-65
2023/10/05 02:11:33;;;;;;;13.75;2.30;;;13.50;99.90;;;;;;5063079;28;20044;-65
2023/10/05 02:14:06;;;;;;;14.00;2.38;;;13.50;99.90;;;;;;5071569;28;20055;-64
2023/10/05 02:16:32;;;;;;;10.32;1.98;;;13.60;99.90;;;;;;5058237;28;20040;-65
2023/10/05 02:19:02;;;;;;;13.57;2.70;;;13.60;99.90;;;;;;5065656;28;20048;-65
2023/10/05 02:21:30;;;;;;;12.15;2.47;;;13.60;99.90;;;;;;5067084;28;20532;-65
2023/10/05 02:23:58;;;;;;;17.08;2.78;;;13.60;99.90;;;;;;5068039;28;20134;-65
2023/10/05 02:26:27;;;;;;;12.68;1.92;;;13.60;99.90;;;;;;5067772;28;20072;-65
2023/10/05 02:28:55;;;;;;;14.77;2.78;;;13.60;99.90;;;;;;5067211;28;20075;-64
2023/10/05 02:31:21;;;;;;;17.05;2.30;;;13.60;99.90;;;;;;5062176;28;20041;-64
2023/10/05 02:33:47;;;;;;;14.60;2.65;;;13.70;99.90;;;;;;5054617;28;20514;-64
2023/10/05 02:36:17;;;;;;;7.88;2.08;;;13.70;99.90;;;;;;5064030;28;20129;-65
2023/10/05 02:38:49;;;;;;;12.43;2.60;;;13.70;99.90;;;;;;5076607;28;20047;-64
2023/10/05 02:41:17;;;;;;;14.55;2.72;;;13.70;99.90;;;;;;5059603;28;20071;-65
2023/10/05 02:43:52;;;;;;;13.80;2.80;;;13.70;99.90;;;;;;5063504;28;20039;-65
2023/10/05 02:46:20;;;;;;;12.43;2.65;;;13.80;99.90;;;;;;5061407;28;20053;-65
2023/10/05 02:48:46;;;;;;;11.02;2.83;;;13.70;99.90;;;;;;5070676;28;20041;-64
2023/10/05 02:51:18;;;;;;;14.90;3.40;;;13.80;99.90;;;;;;5062839;28;20037;-64
2023/10/05 02:53:46;;;;;;;14.70;2.30;;;13.80;99.90;;;;;;5063233;28;20103;-64
2023/10/05 02:56:21;;;;;;;11.32;2.10;;;13.80;99.90;;;;;;5040342;28;20044;-65
2023/10/05 02:58:51;;;;;;;17.33;2.70;;;13.80;99.90;;;;;;5057796;28;20080;-64
2023/10/05 03:01:16;;;;;;;20.10;2.75;;;13.90;99.90;;;;;;5041466;28;20405;-64
2023/10/05 03:03:45;;;;;;;11.95;2.85;;;13.80;99.90;;;;;;5065258;28;20058;-65
2023/10/05 03:06:11;;;;;;;17.02;3.53;;;13.90;99.90;;;;;;5061165;28;20051;-65
2023/10/05 03:08:37;;;;;;;21.17;3.65;;;13.90;99.90;;;;;;5060627;28;20036;-65
2023/10/05 03:11:08;;;;;;;12.95;3.00;;;13.90;99.90;;;;;;5064796;28;20071;-65
2023/10/05 03:13:41;;;;;;;14.95;2.33;;;13.90;99.90;;;;;;5064483;28;20048;-65
2023/10/05 03:16:10;;;;;;;21.17;2.78;;;13.90;99.90;;;;;;5062017;28;20044;-64
2023/10/05 03:18:39;;;;;;;12.48;3.38;;;14.00;99.90;;;;;;5063002;28;20048;-65
2023/10/05 03:21:14;;;;;;;19.55;2.70;;;13.90;99.90;;;;;;5063935;28;20441;-65
2023/10/05 03:23:41;;;;;;;9.75;2.13;;;14.00;99.90;;;;;;5062444;28;20041;-65
2023/10/05 03:26:15;;;;;;;17.13;2.88;;;13.90;99.90;;;;;;5028254;28;21674;-64
2023/10/05 03:28:41;;;;;;;16.33;2.95;;;14.00;99.90;;;;;;5061513;28;20060;-64
2023/10/05 03:31:32;;;;;;;14.15;2.75;;;14.00;99.90;;;;;;5062188;28;20599;-64
2023/10/05 03:33:58;;;;;;;13.63;2.80;;;14.00;99.90;;;;;;5061450;28;20044;-65
2023/10/05 03:36:24;;;;;;;13.88;3.00;;;14.00;99.90;;;;;;5061695;28;20497;-65
2023/10/05 03:38:56;;;;;;;13.40;2.72;;;14.00;99.90;;;;;;5062274;28;20052;-65
2023/10/05 03:41:27;;;;;;;18.00;2.60;;;14.00;99.90;;;;;;5062243;28;20053;-65
2023/10/05 03:43:55;;;;;;;15.73;2.88;;;14.00;99.90;;;;;;5057438;28;20048;-64
2023/10/05 03:46:25;;;;;;;14.15;2.70;;;14.00;99.90;;;;;;5062963;28;20068;-65
2023/10/05 03:48:52;;;;;;;17.33;2.10;;;14.10;99.90;;;;;;5062467;28;20137;-64
2023/10/05 03:51:18;;;;;;;16.23;2.60;;;14.10;99.90;;;;;;5078582;28;20135;-64
2023/10/05 03:53:51;;;;;;;14.73;3.15;;;14.00;99.90;;;;;;5067689;28;20131;-65
2023/10/05 03:56:21;;;;;;;16.52;3.30;;;14.10;99.90;;;;;;5066621;28;20118;-65
2023/10/05 03:58:52;;;;;;;14.15;2.83;;;14.10;99.90;;;;;;5059867;28;20044;-65
2023/10/05 04:01:18;;;;;;;;;;;14.10;99.90;;;;;;5060332;28;20158;-65
2023/10/05 04:03:46;;;;;;;11.77;3.20;;;14.10;99.90;;;;;;5060968;28;19982;-64
2023/10/05 04:06:23;;;;;;;12.38;2.95;;;14.10;99.90;;;;;;5060504;28;20060;-65
2023/10/05 04:08:59;;;;;;;15.10;2.75;;;14.10;99.90;;;;;;5060451;28;20076;-65
2023/10/05 04:11:26;;;;;;;13.77;2.80;;;14.10;99.90;;;;;;5059610;28;20052;-65
2023/10/05 04:13:57;;;;;;;19.30;3.10;;;14.10;99.90;;;;;;5066978;28;20542;-65
2023/10/05 04:16:33;;;;;;;17.52;2.90;;;14.00;99.90;;;;;;5060715;28;20056;-65
2023/10/05 04:18:59;;;;;;;20.27;2.63;;;14.10;99.90;;;;;;5063647;28;20155;-65
2023/10/05 04:21:25;;;;;;;19.98;3.83;;;14.10;99.90;;;;;;5057643;28;20131;-64
2023/10/05 04:23:56;;;;;;;14.10;3.15;;;14.10;99.90;;;;;;5067751;28;20259;-64
2023/10/05 04:26:26;;;;;;;24.17;3.50;;;14.10;99.90;;;;;;5058610;28;20032;-65
2023/10/05 04:28:52;;;;;;;11.57;2.23;;;14.10;99.90;;;;;;5063714;28;20124;-64
2023/10/05 04:31:28;;;;;;;17.35;3.30;;;14.10;99.90;;;;;;5055671;28;20608;-65
2023/10/05 04:33:55;;;;;;;16.40;2.72;;;14.00;99.90;;;;;;5052908;28;20437;-65
2023/10/05 04:36:25;;;;;;;15.75;3.28;;;14.10;99.90;;;;;;5051132;28;20149;-65
2023/10/05 04:38:53;;;;;;;18.17;2.80;;;14.00;99.90;;;;;;5062754;28;20048;-65
2023/10/05 04:41:21;;;;;;;13.50;2.30;;;14.10;99.90;;;;;;5056493;28;20041;-65
2023/10/05 04:43:48;;;;;;;15.18;2.88;;;14.10;99.90;;;;;;5055960;28;20044;-65
2023/10/05 04:46:18;;;;;;;14.98;3.08;;;14.10;99.90;;;;;;5056634;28;21178;-65
2023/10/05 04:48:55;;;;;;;17.35;2.58;;;14.10;99.90;;;;;;5057811;28;20044;-65
2023/10/05 04:51:29;;;;;;;15.38;2.95;;;14.10;99.90;;;;;;5076434;28;20055;-64
2023/10/05 04:53:58;;;;;;;18.35;3.13;;;14.10;99.90;;;;;;5061567;28;20070;-64
2023/10/05 04:56:35;;;;;;;22.65;4.15;;;14.10;99.90;;;;;;5050063;28;20091;-65
2023/10/05 05:07:09;;;;;;;17.02;3.10;;;14.10;99.90;;;;;;5057956;28;20110;-65
2023/10/05 05:09:39;;;;;;;15.23;2.78;;;14.10;99.90;;;;;;5061117;28;20529;-65
2023/10/05 05:12:08;;;;;;;16.17;3.80;;;14.10;99.90;;;;;;5057758;28;20418;-65
2023/10/05 05:14:42;;;;;;;15.15;3.00;;;14.10;99.90;;;;;;5046315;28;20060;-65
2023/10/05 05:17:11;;;;;;;17.08;3.10;;;14.10;99.90;;;;;;5059866;28;20118;-64
2023/10/05 05:19:41;;;;;;;14.70;2.70;;;14.10;99.90;;;;;;5042385;28;20133;-65
2023/10/05 05:22:08;;;;;;;14.93;3.38;;;14.00;99.90;;;;;;5047236;28;20494;-64
2023/10/05 05:24:35;;;;;;;16.95;3.10;;;14.00;99.90;;;;;;5051650;28;20051;-65
2023/10/05 05:27:04;;;;;;;15.00;2.90;;;14.00;99.90;;;;;;5043013;28;20037;-65
2023/10/05 05:29:33;;;;;;;20.63;3.45;;;14.00;99.90;;;;;;5045570;28;20624;-66
2023/10/05 05:32:19;;;;;;;10.93;2.67;;;14.00;99.90;;;;;;5054501;28;20036;-65
2023/10/05 05:34:45;;;;;;;17.25;3.15;;;14.10;99.90;;;;;;5069127;28;20049;-65
2023/10/05 05:37:25;;;;;;;10.80;2.70;;;14.00;99.90;;;;;;5043444;28;20045;-64
2023/10/05 05:39:53;;;;;;;16.48;2.80;;;14.00;99.90;;;;;;5056380;28;20413;-65
2023/10/05 05:42:18;;;;;;;18.45;2.95;;;14.00;99.90;;;;;;5058294;28;20119;-64
2023/10/05 05:44:44;;;;;;;23.25;4.15;;;14.00;99.90;;;;;;5057152;28;20124;-64
2023/10/05 05:47:11;;;;;;;14.80;2.95;;;14.00;99.90;;;;;;5054950;28;20048;-64
2023/10/05 05:49:38;;;;;;;17.02;2.75;;;14.00;99.90;;;;;;5058808;28;20476;-65
2023/10/05 05:52:05;;;;;;;15.45;3.40;;;14.00;99.90;;;;;;5050797;28;20040;-65
2023/10/05 05:54:32;;;;;;;12.48;2.88;;;14.00;99.90;;;;;;5058740;28;20044;-65
2023/10/05 05:56:58;;;;;;;18.20;2.90;;;14.00;99.90;;;;;;5057308;28;20127;-65
2023/10/05 05:59:24;;;;;;;17.75;2.70;;;14.10;99.90;;;;;;5064452;28;20134;-65
2023/10/05 06:01:53;;;;;;;15.07;2.88;;;14.10;99.90;;;;;;5067652;28;20047;-65
2023/10/05 06:04:19;;;;;;;20.98;2.63;;;14.10;99.90;;;;;;5068850;28;20047;-65
2023/10/05 06:06:48;;;;;;;21.00;2.97;;;14.10;99.90;;;;;;5068997;28;20041;-65
2023/10/05 06:09:19;;;;;;;19.63;3.17;;;14.10;99.90;;;;;;5047172;28;20044;-65
2023/10/05 06:11:51;;;;;;;16.85;2.40;;;14.10;99.90;;;;;;5057438;28;20072;-65
2023/10/05 06:14:17;;;;;;;14.43;2.80;;;14.10;99.90;;;;;;5034327;28;20106;-65
2023/10/05 06:16:43;;;;;;;17.10;3.08;;;14.20;99.90;;;;;;5056263;28;20130;-65
2023/10/05 06:19:09;;;;;;;14.88;3.22;;;14.20;99.90;;;;;;5057343;28;20460;-64
2023/10/05 06:21:35;;;;;;;15.27;3.13;;;14.20;99.90;;;;;;5065043;28;20044;-65
2023/10/05 06:24:05;;;;;;;20.95;3.28;;;14.20;99.90;;;;;;5061654;28;20044;-65
2023/10/05 06:26:31;;;;;;;21.10;3.40;;;14.20;99.90;;;;;;5064901;28;20048;-68
2023/10/05 06:28:57;;;;;;;17.92;3.58;;;14.20;99.90;;;;;;5062223;28;20059;-65
2023/10/05 06:31:23;;;;;;;16.15;2.63;;;14.30;99.90;;;;;;5067146;28;20045;-65
2023/10/05 06:33:49;;;;;;;19.45;3.40;;;14.30;99.90;;;;;;5068329;28;20044;-65
2023/10/05 06:36:15;;;;;;;20.27;3.42;;;14.30;99.90;;;;;;5055283;28;20144;-65
2023/10/05 06:38:40;;;;;;;18.92;3.25;;;14.30;99.90;;;;;;5061944;28;20028;-65
2023/10/05 06:41:06;;;;;;;18.77;3.17;;;14.40;99.90;;;;;;5067858;28;20076;-65
2023/10/05 06:43:35;;;;;;;15.40;3.20;;;14.40;99.90;;;;;;5060378;28;20815;-65
2023/10/05 06:46:17;;;;;;;15.30;3.50;;;14.40;99.90;;;;;;5061551;28;20040;-66
2023/10/05 06:48:43;;;;;;;17.80;3.15;;;14.40;99.90;;;;;;5050876;28;20115;-65
2023/10/05 06:51:09;;;;;;;14.40;2.60;;;14.40;99.90;;;;;;5041449;28;20051;-65
2023/10/05 06:53:37;;;;;;;17.05;3.25;;;14.50;99.90;;;;;;5069770;28;20045;-65
2023/10/05 06:56:03;;;;;;;16.48;3.50;;;14.50;99.90;;;;;;5066218;28;20561;-65
2023/10/05 06:58:29;;;;;;;13.70;2.97;;;14.50;99.90;;;;;;5057006;28;20036;-65
2023/10/05 07:00:55;;;;;;;19.58;3.33;;;14.60;99.90;;;;;;5074205;28;20057;-65
2023/10/05 07:03:20;;;;;;;12.65;2.70;;;14.60;99.90;;;;;;5063492;28;20053;-65
2023/10/05 07:05:47;;;;;;;18.42;2.90;;;14.60;99.90;;;;;;5066856;28;20500;-65
2023/10/05 07:08:15;;;;;;;15.13;3.33;;;14.60;99.90;;;;;;5061033;28;20045;-66
2023/10/05 07:10:42;;;;;;;19.20;3.45;;;14.60;99.90;;;;;;5066943;28;20075;-65
2023/10/05 07:13:09;;;;;;;13.85;3.33;;;14.70;99.90;;;;;;5067546;28;20527;-66
2023/10/05 07:15:35;;;;;;;17.27;3.28;;;14.60;99.90;;;;;;5062773;28;20052;-65
2023/10/05 07:18:01;;;;;;;16.90;3.50;;;14.70;99.90;;;;;;5053306;28;20076;-65
2023/10/05 07:20:27;;;;;;;14.82;2.80;;;14.70;99.90;;;;;;5054228;28;20904;-65
2023/10/05 07:22:54;;;;;;;14.13;3.28;;;14.80;99.90;;;;;;5049950;28;20098;-65
2023/10/05 07:25:21;;;;;;;20.80;3.55;;;14.80;99.90;;;;;;5052321;28;20520;-65
2023/10/05 07:27:49;;;;;;;22.05;4.22;;;14.80;99.90;;;;;;5058808;28;20045;-66
2023/10/05 07:30:16;;;;;;;17.90;3.17;;;14.80;99.90;;;;;;5072087;28;20459;-65
2023/10/05 07:32:41;;;;;;;15.48;2.88;;;14.80;99.90;;;;;;5059509;28;20059;-65
2023/10/05 07:35:09;;;;;;;18.10;2.78;;;14.80;99.90;;;;;;5058579;28;20044;-65
2023/10/05 07:37:35;;;;;;;19.25;3.35;;;14.90;99.90;;;;;;5076265;28;20055;-65
2023/10/05 07:40:07;;;;;;;16.30;2.67;;;14.90;99.90;;;;;;5058376;28;20048;-66
2023/10/05 07:42:33;;;;;;;17.80;3.30;;;14.90;99.90;;;;;;5064490;28;20040;-65
2023/10/05 07:45:03;;;;;;;13.95;2.92;;;14.90;99.90;;;;;;5065210;28;20055;-65
2023/10/05 07:47:30;;;;;;;16.40;3.40;;;14.90;99.90;;;;;;5055185;28;20049;-66
2023/10/05 07:49:56;;;;;;;15.80;2.95;;;14.90;99.90;;;;;;5062509;28;20121;-66
2023/10/05 07:52:22;;;;;;;18.50;3.17;;;14.90;99.90;;;;;;5064307;28;20036;-66
2023/10/05 07:54:48;;;;;;;14.15;3.10;;;14.90;99.90;;;;;;5041529;28;20041;-66
2023/10/05 07:57:14;;;;;;;14.00;2.90;;;14.90;99.90;;;;;;5060916;28;20492;-66
2023/10/05 07:59:41;;;;;;;18.20;3.53;;;14.90;99.90;;;;;;5048375;28;20048;-66
2023/10/05 08:02:08;;;;;;;11.88;2.78;;;15.00;99.90;;;;;;5047415;28;20655;-66
2023/10/05 08:04:35;;;;;;;16.08;3.78;;;15.00;99.90;;;;;;5054646;28;21602;-66
2023/10/05 08:07:02;;;;;;;17.02;2.67;;;15.10;99.90;;;;;;5064291;28;20326;-66
2023/10/05 08:09:29;;;;;;;15.38;3.17;;;15.10;99.90;;;;;;5060899;28;20052;-66
2023/10/05 08:11:56;;;;;;;13.85;2.92;;;15.10;99.90;;;;;;5056308;28;20052;-66
2023/10/05 08:14:30;;;;;;;13.68;3.30;;;15.10;99.90;;;;;;5064313;28;20041;-65
2023/10/05 08:16:57;;;;;;;11.77;2.67;;;15.10;99.90;;;;;;5058882;28;20085;-65
2023/10/05 08:19:27;;;;;;;19.52;3.00;;;15.10;99.90;;;;;;5071140;28;20055;-65
2023/10/05 08:21:53;;;;;;;15.15;2.88;;;15.10;99.90;;;;;;5062866;28;20455;-65
2023/10/05 08:24:21;;;;;;;16.48;3.15;;;15.20;99.90;;;;;;5056472;28;20189;-64
2023/10/05 08:26:49;;;;;;;17.45;3.25;;;15.20;99.90;;;;;;5070220;28;20656;-65
2023/10/05 08:29:18;;;;;;;15.85;4.38;;;15.20;99.90;;;;;;5062240;28;20048;-64
2023/10/05 08:31:44;;;;;;;14.63;3.40;;;15.20;99.90;;;;;;5064736;28;20105;-65
2023/10/05 08:34:20;;;;;;;18.45;3.17;;;15.20;99.90;;;;;;5065734;28;20051;-65
2023/10/05 08:36:53;;;;;;;24.63;3.80;;;15.30;99.90;;;;;;5063696;28;20045;-65
2023/10/05 08:39:23;;;;;;;19.73;3.63;;;15.30;99.90;;;;;;5042588;28;20127;-65
2023/10/05 08:41:48;;;;;;;14.38;3.00;;;15.30;99.90;;;;;;5042169;28;20097;-65
2023/10/05 08:44:26;;;;;;;13.30;3.72;;;15.30;99.90;;;;;;5059806;28;20072;-65
2023/10/05 08:46:52;;;;;;;12.98;2.60;;;15.30;99.90;;;;;;5052425;28;20044;-65
2023/10/05 08:49:18;;;;;;;18.52;2.67;;;15.30;99.90;;;;;;5065742;28;20076;-65
2023/10/05 08:51:44;;;;;;;14.90;3.22;;;15.30;99.90;;;;;;5055745;28;20140;-65
2023/10/05 08:54:13;;;;;;;17.65;3.67;;;15.30;99.90;;;;;;5052704;28;20643;-65
2023/10/05 08:56:47;;;;;;;12.32;2.97;;;15.30;99.90;;;;;;5065747;28;20049;-65
2023/10/05 08:59:14;;;;;;;15.13;3.35;;;15.40;99.90;;;;;;5046729;28;20123;-66
2023/10/05 09:01:45;;;;;;;15.07;2.92;;;15.40;99.90;;;;;;5064391;28;20159;-65
2023/10/05 09:04:11;;;;;;;;;;;15.40;99.90;;;;;;5061104;28;20622;-66
2023/10/05 09:07:14;;;;;;;14.73;2.75;;;15.40;99.90;;;;;;5070562;28;19929;-66
2023/10/05 09:09:54;;;;;;;16.33;2.90;;;15.40;99.90;;;;;;5060003;28;20044;-67
2023/10/05 09:17:58;;;;;;;15.73;3.95;;;15.50;99.90;;;;;;5065449;28;20547;-66
2023/10/05 09:20:31;;;;;;;14.65;3.30;;;15.50;99.90;;;;;;5056365;28;20448;-65
2023/10/05 09:23:00;;;;;;;14.63;2.92;;;15.60;99.90;;;;;;5072316;28;20044;-66
2023/10/05 09:25:46;;;;;;;14.77;3.20;;;15.60;99.90;;;;;;5063639;28;20050;-65
2023/10/05 09:28:13;;;;;;;12.45;3.00;;;15.60;99.90;;;;;;5060785;28;20040;-65
2023/10/05 09:30:55;;;;;;;16.13;2.97;;;15.70;99.90;;;;;;5059660;28;20141;-65
2023/10/05 09:33:22;;;;;;;13.30;2.90;;;15.80;99.90;;;;;;5063409;28;20048;-65
2023/10/05 09:35:47;;;;;;;14.75;3.13;;;15.80;99.90;;;;;;5061088;28;20059;-66
2023/10/05 09:38:21;;;;;;;12.63;2.88;;;15.80;99.90;;;;;;5079340;28;20493;-66
2023/10/05 09:40:54;;;;;;;12.88;2.78;;;15.90;99.90;;;;;;5050667;28;20066;-66
2023/10/05 09:43:22;;;;;;;12.20;2.85;;;15.90;99.90;;;;;;5070234;28;20049;-66
2023/10/05 09:45:53;;;;;;;14.48;3.30;;;15.90;99.90;;;;;;5065649;28;20503;-66
2023/10/05 09:48:24;;;;;;;12.75;2.70;;;15.90;99.90;;;;;;5065280;28;20758;-65
2023/10/05 09:50:52;;;;;;;12.55;2.95;;;15.90;99.90;;;;;;5056312;28;20087;-66
2023/10/05 09:53:18;;;;;;;14.80;2.70;;;16.00;99.90;;;;;;5064071;28;20051;-66
2023/10/05 09:55:53;;;;;;;17.58;3.38;;;16.00;99.90;;;;;;5063608;28;20725;-66
2023/10/05 09:58:21;;;;;;;16.83;3.13;;;16.00;99.90;;;;;;5061557;28;20098;-66
2023/10/05 10:03:13;;;;;;;13.25;3.10;;;16.00;99.90;;;;;;5064945;28;20053;-65
2023/10/05 10:05:48;;;;;;;13.73;2.88;;;16.00;99.90;;;;;;5068403;28;20041;-66
2023/10/05 10:08:25;;;;;;;16.40;3.05;;;16.10;99.90;;;;;;5062859;28;20044;-65
2023/10/05 10:11:09;;;;;;;17.15;3.72;;;16.10;99.90;;;;;;5055739;28;20056;-66
2023/10/05 10:13:39;;;;;;;16.45;3.55;;;16.10;99.90;;;;;;5052395;28;20045;-66
2023/10/05 10:16:16;;;;;;;16.30;2.92;;;16.00;99.90;;;;;;5050740;28;20132;-66
2023/10/05 10:18:44;;;;;;;11.57;2.83;;;16.10;99.90;;;;;;5050378;28;20109;-65
2023/10/05 10:21:21;;;;;;;15.15;3.17;;;16.00;99.90;;;;;;5065531;28;20075;-66
2023/10/05 10:24:07;;;;;;;10.88;2.97;;;16.10;99.90;;;;;;5049462;28;20048;-66
2023/10/05 10:27:07;;;;;;;16.23;2.92;;;16.10;99.90;;;;;;5067692;28;20167;-66
2023/10/05 10:29:45;;;;;;;12.95;3.25;;;16.10;99.90;;;;;;5063209;28;20590;-69
2023/10/05 10:32:19;;;;;;;14.73;3.10;;;16.20;99.90;;;;;;5034868;28;20053;-70
2023/10/05 10:35:09;;;;;;;20.48;3.40;;;16.20;99.90;;;;;;5063720;28;20044;-71
2023/10/05 10:37:49;;;;;;;14.10;3.13;;;16.20;99.90;;;;;;5035331;28;20081;-70
2023/10/05 10:45:30;;;;;;;15.52;2.85;;;16.30;99.90;;;;;;5049661;28;20125;-71
2023/10/05 10:47:56;;;;;;;14.68;2.90;;;16.30;99.90;;;;;;5051403;28;20048;-71
2023/10/05 10:50:23;;;;;;;12.00;2.60;;;16.30;99.90;;;;;;5051467;28;20028;-71
2023/10/05 10:52:50;;;;;;;15.13;2.72;;;16.30;99.90;;;;;;5067439;28;20567;-70
2023/10/05 10:55:20;;;;;;;14.68;3.15;;;16.30;99.90;;;;;;5053990;28;20060;-70
2023/10/05 10:57:53;;;;;;;12.68;3.17;;;16.30;99.90;;;;;;5052110;28;20036;-70
2023/10/05 11:03:11;;;;;;;12.57;3.25;;;16.40;99.90;;;;;;5054017;28;20066;-70
2023/10/05 11:05:47;;;;;;;15.32;2.50;;;16.50;99.90;;;;;;5062228;28;20047;-70
2023/10/05 11:08:20;;;;;;;8.38;2.63;;;16.60;99.90;;;;;;5054813;28;20036;-70
2023/10/05 11:10:59;;;;;;;15.10;2.88;;;16.70;99.90;;;;;;5073669;28;20132;-70
2023/10/05 11:13:26;;;;;;;14.68;3.15;;;16.70;99.90;;;;;;5052359;28;20048;-69
2023/10/05 11:16:00;;;;;;;18.60;3.13;;;16.80;99.90;;;;;;5051553;28;20037;-70
2023/10/05 11:18:31;;;;;;;14.35;2.92;;;16.90;99.90;;;;;;5032815;28;20052;-69
2023/10/05 11:21:05;;;;;;;14.93;3.40;;;16.90;99.90;;;;;;5052936;28;20068;-70
2023/10/05 11:23:45;;;;;;;12.13;2.40;;;17.00;99.90;;;;;;5038731;28;20371;-70
2023/10/05 11:26:18;;;;;;;12.40;2.67;;;17.00;99.90;;;;;;5041422;28;20383;-70
2023/10/05 11:28:52;;;;;;;15.23;2.47;;;17.00;99.90;;;;;;5056532;28;20492;-70
2023/10/05 11:31:26;;;;;;;14.50;2.97;;;16.90;99.90;;;;;;5052441;28;20664;-70
2023/10/05 11:33:56;;;;;;;15.75;2.97;;;16.90;99.90;;;;;;5047875;28;20052;-69
2023/10/05 11:36:33;;;;;;;10.98;2.40;;;16.80;99.90;;;;;;5053488;28;20149;-71
2023/10/05 11:39:03;;;;;;;14.23;2.95;;;16.80;99.90;;;;;;5068042;28;20041;-71
2023/10/05 11:41:30;;;;;;;9.23;2.17;;;16.80;99.90;;;;;;5056952;28;20080;-72
2023/10/05 11:43:56;;;;;;;11.45;2.55;;;16.70;99.90;;;;;;5056995;28;20047;-72
2023/10/05 11:46:45;;;;;;;11.90;2.22;;;16.60;99.90;;;;;;5059444;28;20397;-71
2023/10/05 11:49:13;;;;;;;11.35;2.33;;;16.60;99.90;;;;;;5059274;28;20501;-71
2023/10/05 11:51:41;;;;;;;9.00;2.20;;;16.50;99.90;;;;;;5060455;28;20075;-72
2023/10/05 11:54:07;;;;;;;11.55;2.90;;;16.50;99.90;;;;;;5059582;28;20054;-71
2023/10/05 11:56:33;;;;;;;11.82;2.50;;;16.40;99.90;;;;;;5063529;28;20540;-71
2023/10/05 11:59:00;;;;;;;10.32;2.58;;;16.30;99.90;;;;;;5057326;28;20048;-71
2023/10/05 12:01:26;;;;;;;11.13;2.50;;;16.30;99.90;;;;;;5060503;28;20123;-71
2023/10/05 12:03:54;;;;;;;12.77;2.55;;;16.30;99.90;;;;;;5059009;28;20047;-71
2023/10/05 12:06:24;;;;;;;11.13;2.58;;;16.30;99.90;;;;;;5059547;28;20102;-71
2023/10/05 12:08:53;;;;;;;13.35;2.55;;;16.20;99.90;;;;;;5056580;28;20064;-71
2023/10/05 12:11:24;;;;;;;11.43;2.50;;;16.30;99.90;;;;;;5064241;28;20129;-71
2023/10/05 12:13:56;;;;;;;12.82;2.80;;;16.20;99.90;;;;;;5063589;28;20068;-70
2023/10/05 12:16:27;;;;;;;13.93;2.88;;;16.20;99.90;;;;;;5043402;28;20542;-71
2023/10/05 12:18:54;;;;;;;10.00;2.22;;;16.20;99.90;;;;;;5043884;28;20040;-71
2023/10/05 12:21:22;;;;;;;8.98;2.20;;;16.30;99.90;;;;;;5064847;28;20052;-71
2023/10/05 12:23:48;;;;;;;13.18;2.67;;;16.30;99.90;;;;;;5063058;28;20040;-71
2023/10/05 12:26:15;;;;;;;13.13;2.80;;;16.30;99.90;;;;;;5046500;28;20052;-72
2023/10/05 12:28:41;;;;;;;10.60;2.45;;;16.30;99.90;;;;;;5045702;28;20041;-70
2023/10/05 12:31:10;;;;;;;8.25;2.40;;;16.30;99.90;;;;;;5049852;28;20051;-71
2023/10/05 12:33:39;;;;;;;8.18;2.55;;;16.20;99.90;;;;;;5052306;28;20101;-70
2023/10/05 12:36:08;;;;;;;10.00;2.28;;;16.20;99.90;;;;;;5054588;28;20056;-71
2023/10/05 12:38:36;;;;;;;11.18;2.83;;;16.20;99.90;;;;;;5056787;28;20045;-70
2023/10/05 12:41:28;;;;;;;8.48;2.13;;;16.30;99.90;;;;;;5057959;28;20080;-70
2023/10/05 12:43:49;;;;;;;12.60;2.10;;;16.30;99.90;;;;;;5058993;28;20055;-71
2023/10/05 12:46:15;;;;;;;12.23;2.90;;;16.30;99.90;;;;;;5063604;28;20049;-70
2023/10/05 12:48:40;;;;;;;10.95;2.50;;;16.30;99.90;;;;;;5052989;28;20059;-71
2023/10/05 12:51:08;;;;;;;10.80;2.40;;;16.30;99.90;;;;;;5060382;28;20116;-70
2023/10/05 12:53:36;;;;;;;13.50;2.60;;;16.40;99.90;;;;;;5064042;28;20044;-70
2023/10/05 12:56:03;;;;;;;16.75;2.30;;;16.40;99.90;;;;;;5044872;28;20094;-70
2023/10/05 12:58:29;;;;;;;11.30;2.35;;;16.40;99.90;;;;;;5072570;28;20038;-70
2023/10/05 13:00:56;;;;;;;13.60;2.92;;;16.40;99.90;;;;;;5064063;28;20490;-70
2023/10/05 13:03:25;;;;;;;13.68;2.70;;;16.40;99.90;;;;;;5056572;28;20075;-72
2023/10/05 13:05:51;;;;;;;13.00;2.60;;;16.50;99.90;;;;;;5058799;28;20691;-71
2023/10/05 13:08:20;;;;;;;12.00;2.72;;;16.50;99.90;;;;;;5076170;28;20556;-70
2023/10/05 13:10:46;;;;;;;18.42;2.95;;;16.60;99.90;;;;;;5065004;28;20795;-70
2023/10/05 13:13:20;;;;;;;13.38;3.13;;;16.60;99.90;;;;;;5053105;28;20500;-70
2023/10/05 13:15:46;;;;;;;16.30;3.45;;;16.60;99.90;;;;;;5061454;28;20037;-71
2023/10/05 13:18:18;;;;;;;12.98;3.15;;;16.70;99.90;;;;;;5049509;28;20327;-70
2023/10/05 13:20:54;;;;;;;11.98;2.40;;;16.80;99.90;;;;;;5063164;28;20132;-70
2023/10/05 13:23:24;;;;;;;14.02;2.78;;;16.80;99.90;;;;;;5065329;28;20055;-70
2023/10/05 13:25:51;;;;;;;10.23;2.67;;;16.90;99.90;;;;;;5050512;28;20060;-70
2023/10/05 13:28:24;;;;;;;16.83;3.10;;;16.90;99.90;;;;;;5066094;28;20059;-70